createdAt,value
2019-05-23T00:01:34.648Z,21.20
2019-05-23T00:04:07.526Z,21.00
2019-05-23T00:06:37.456Z,20.57
2019-05-23T00:09:06.752Z,23.00
2019-05-23T00:11:53.012Z,22.90
2019-05-23T00:14:46.540Z,21.60
2019-05-23T00:17:18.718Z,22.10
2019-05-23T00:19:47.714Z,22.27
2019-05-23T00:22:16.996Z,22.07
2019-05-23T00:24:46.055Z,23.40
2019-05-23T00:27:17.066Z,24.77
2019-05-23T00:29:48.030Z,23.60
2019-05-23T00:32:24.600Z,23.83
2019-05-23T00:34:54.874Z,24.00
2019-05-23T00:37:24.529Z,25.10
2019-05-23T00:39:54.073Z,24.60
2019-05-23T00:42:22.842Z,24.03
2019-05-23T00:44:52.303Z,23.77
2019-05-23T00:47:20.811Z,23.97
2019-05-23T00:49:50.179Z,23.73
2019-05-23T00:52:19.019Z,25.73
2019-05-23T00:54:48.338Z,26.03
2019-05-23T00:57:18.599Z,25.87
2019-05-23T00:59:48.685Z,25.77
2019-05-23T01:02:17.305Z,25.23
2019-05-23T01:04:47.609Z,23.70
2019-05-23T01:07:17.029Z,24.10
2019-05-23T01:09:46.130Z,24.03
2019-05-23T01:12:14.918Z,24.83
2019-05-23T01:14:43.456Z,24.37
2019-05-23T01:17:12.069Z,25.07
2019-05-23T01:19:41.019Z,26.20
2019-05-23T01:22:12.591Z,24.37
2019-05-23T01:24:45.643Z,25.03
2019-05-23T01:27:14.178Z,23.90
2019-05-23T01:29:49.675Z,23.00
2019-05-23T01:32:29.556Z,23.93
2019-05-23T01:34:58.681Z,22.93
2019-05-23T01:37:27.239Z,23.03
2019-05-23T01:39:55.755Z,24.03
2019-05-23T01:42:26.243Z,22.47
2019-05-23T01:44:55.674Z,22.60
2019-05-23T01:47:24.270Z,24.97
2019-05-23T01:49:53.238Z,24.07
2019-05-23T01:52:22.438Z,23.87
2019-05-23T01:54:51.123Z,22.33
2019-05-23T01:57:19.741Z,21.27
2019-05-23T01:59:48.269Z,24.03
2019-05-23T02:02:18.641Z,22.37
2019-05-23T02:04:47.329Z,23.93
2019-05-23T02:07:16.521Z,23.67
2019-05-23T02:09:44.971Z,22.83
2019-05-23T02:12:14.039Z,23.80
2019-05-23T02:14:44.267Z,24.40
2019-05-23T02:17:14.525Z,23.40
2019-05-23T02:19:43.464Z,23.67
2019-05-23T02:22:13.282Z,24.37
2019-05-23T02:24:42.320Z,23.77
2019-05-23T02:27:12.008Z,23.83
2019-05-23T02:29:42.853Z,22.60
2019-05-23T02:32:12.067Z,23.17
2019-05-23T02:34:41.264Z,23.80
2019-05-23T02:37:20.137Z,23.20
2019-05-23T02:39:52.918Z,24.03
2019-05-23T02:42:38.532Z,24.23
2019-05-23T02:45:10.001Z,23.47
2019-05-23T02:47:43.174Z,24.40
2019-05-23T02:50:16.247Z,23.73
2019-05-23T02:52:50.599Z,23.40
2019-05-23T02:55:25.029Z,23.80
2019-05-23T02:57:55.222Z,24.70
2019-05-23T03:00:54.312Z,24.33
2019-05-23T03:03:19.444Z,25.17
2019-05-23T03:05:48.310Z,26.97
2019-05-23T03:08:17.268Z,25.70
2019-05-23T03:11:07.163Z,25.80
2019-05-23T03:13:37.444Z,24.30
2019-05-23T03:16:07.667Z,25.47
2019-05-23T03:18:40.309Z,25.67
2019-05-23T03:21:08.984Z,27.03
2019-05-23T03:23:37.887Z,27.87
2019-05-23T03:26:21.123Z,26.90
2019-05-23T03:28:50.170Z,26.77
2019-05-23T03:31:30.630Z,27.17
2019-05-23T03:33:54.978Z,26.37
2019-05-23T03:36:24.910Z,29.47
2019-05-23T03:38:55.220Z,29.47
2019-05-23T03:41:24.095Z,27.10
2019-05-23T03:43:55.599Z,26.73
2019-05-23T03:46:25.924Z,26.30
2019-05-23T03:48:56.050Z,27.70
2019-05-23T03:51:25.215Z,26.23
2019-05-23T03:53:54.584Z,25.53
2019-05-23T03:56:23.002Z,27.03
2019-05-23T03:58:54.280Z,26.20
2019-05-23T04:01:24.319Z,25.77
2019-05-23T04:03:54.704Z,25.37
2019-05-23T04:06:23.774Z,25.30
2019-05-23T04:08:53.126Z,25.80
2019-05-23T04:11:21.681Z,26.10
2019-05-23T04:13:50.815Z,26.57
2019-05-23T04:16:20.172Z,26.67
2019-05-23T04:18:49.049Z,26.33
2019-05-23T04:21:19.077Z,25.70
2019-05-23T04:23:47.528Z,25.50
2019-05-23T04:26:16.160Z,26.83
2019-05-23T04:28:44.750Z,26.17
2019-05-23T04:31:13.697Z,25.97
2019-05-23T04:33:42.490Z,26.17
2019-05-23T04:36:10.902Z,26.20
2019-05-23T04:38:39.562Z,26.70
2019-05-23T04:41:07.992Z,27.23
2019-05-23T04:43:36.397Z,24.87
2019-05-23T04:46:05.623Z,27.73
2019-05-23T04:48:34.408Z,27.30
2019-05-23T04:51:04.126Z,28.97
2019-05-23T04:53:32.821Z,28.37
2019-05-23T04:56:01.888Z,28.77
2019-05-23T04:58:31.254Z,27.70
2019-05-23T05:01:00.712Z,26.57
2019-05-23T05:03:30.321Z,27.60
2019-05-23T05:05:58.876Z,25.23
2019-05-23T05:08:27.366Z,25.77
2019-05-23T05:10:56.347Z,28.00
2019-05-23T05:13:26.052Z,27.00
2019-05-23T05:15:55.901Z,28.37
2019-05-23T05:18:24.726Z,24.60
2019-05-23T05:20:53.465Z,24.60
2019-05-23T05:23:22.155Z,26.30
2019-05-23T05:25:50.543Z,26.77
2019-05-23T05:28:19.705Z,26.00
2019-05-23T05:30:48.278Z,25.53
2019-05-23T05:33:17.589Z,25.60
2019-05-23T05:35:46.313Z,25.20
2019-05-23T05:38:17.194Z,24.60
2019-05-23T05:40:46.400Z,24.20
2019-05-23T05:43:15.128Z,27.33
2019-05-23T05:45:44.169Z,28.10
2019-05-23T05:48:12.805Z,30.27
2019-05-23T05:50:41.200Z,25.80
2019-05-23T05:53:10.266Z,27.03
2019-05-23T05:55:38.664Z,25.70
2019-05-23T05:58:07.616Z,27.10
2019-05-23T06:00:49.703Z,26.40
2019-05-23T06:03:18.172Z,25.77
2019-05-23T06:05:48.205Z,25.30
2019-05-23T06:08:18.549Z,25.20
2019-05-23T06:10:47.108Z,23.57
2019-05-23T06:13:16.085Z,25.73
2019-05-23T06:15:44.856Z,25.23
2019-05-23T06:18:13.639Z,25.77
2019-05-23T06:20:44.939Z,26.30
2019-05-23T06:23:13.411Z,25.80
2019-05-23T06:25:41.980Z,25.33
2019-05-23T06:28:11.844Z,23.97
2019-05-23T06:30:41.652Z,23.67
2019-05-23T06:33:22.700Z,25.20
2019-05-23T06:35:41.364Z,22.80
2019-05-23T06:38:10.964Z,23.33
2019-05-23T06:40:40.160Z,24.40
2019-05-23T06:43:09.555Z,24.40
2019-05-23T06:45:40.502Z,22.70
2019-05-23T06:48:09.919Z,26.83
2019-05-23T06:50:38.539Z,23.90
2019-05-23T06:53:07.284Z,23.70
2019-05-23T06:55:35.833Z,24.73
2019-05-23T06:58:05.723Z,23.23
2019-05-23T07:00:35.184Z,26.23
2019-05-23T07:03:04.355Z,26.33
2019-05-23T07:05:35.809Z,25.47
2019-05-23T07:08:05.339Z,26.53
2019-05-23T07:10:34.064Z,26.10
2019-05-23T07:13:03.124Z,28.10
2019-05-23T07:15:32.000Z,26.20
2019-05-23T07:18:01.735Z,25.57
2019-05-23T07:20:30.378Z,24.10
2019-05-23T07:22:59.706Z,25.37
2019-05-23T07:25:28.163Z,25.60
2019-05-23T07:27:56.854Z,28.80
2019-05-23T07:30:26.682Z,28.30
2019-05-23T07:32:55.648Z,28.90
2019-05-23T07:35:25.963Z,27.73
2019-05-23T07:37:54.412Z,28.07
2019-05-23T07:40:26.046Z,29.00
2019-05-23T07:42:54.609Z,28.73
2019-05-23T07:45:27.860Z,28.10
2019-05-23T07:47:56.279Z,27.60
2019-05-23T07:50:24.662Z,26.93
2019-05-23T07:52:55.261Z,27.97
2019-05-23T07:55:28.219Z,26.43
2019-05-23T07:57:56.920Z,25.90
2019-05-23T08:00:29.720Z,27.30
2019-05-23T08:03:00.647Z,26.00
2019-05-23T08:05:29.171Z,24.37
2019-05-23T08:07:57.942Z,25.50
2019-05-23T08:10:33.619Z,26.33
2019-05-23T08:12:58.062Z,25.13
2019-05-23T08:15:27.842Z,25.10
2019-05-23T08:17:56.538Z,24.60
2019-05-23T08:20:25.933Z,22.53
2019-05-23T08:22:54.686Z,23.40
2019-05-23T08:25:23.585Z,22.97
2019-05-23T08:27:52.391Z,22.50
2019-05-23T08:30:21.477Z,21.13
2019-05-23T08:32:49.867Z,21.97
2019-05-23T08:35:18.363Z,21.73
2019-05-23T08:37:47.401Z,21.30
2019-05-23T08:40:17.024Z,20.80
2019-05-23T08:42:45.908Z,19.07
2019-05-23T08:45:17.402Z,19.20
2019-05-23T08:47:46.319Z,18.20
2019-05-23T08:50:16.909Z,18.97
2019-05-23T08:52:45.758Z,19.40
2019-05-23T08:55:20.160Z,18.67
2019-05-23T08:57:48.712Z,18.60
2019-05-23T09:00:18.374Z,16.80
2019-05-23T09:02:48.057Z,16.47
2019-05-23T09:05:18.963Z,19.10
2019-05-23T09:07:48.403Z,19.23
2019-05-23T09:10:17.885Z,18.47
2019-05-23T09:12:46.601Z,18.07
2019-05-23T09:15:15.357Z,17.60
2019-05-23T09:17:52.942Z,20.00
2019-05-23T09:20:15.047Z,19.40
2019-05-23T09:22:43.451Z,18.50
2019-05-23T09:25:12.775Z,19.07
2019-05-23T09:27:41.559Z,20.40
2019-05-23T09:30:11.763Z,19.90
2019-05-23T09:32:40.996Z,22.00
2019-05-23T09:35:20.827Z,21.43
2019-05-23T09:37:42.201Z,22.40
2019-05-23T09:40:11.204Z,22.80
2019-05-23T09:42:39.606Z,23.40
2019-05-23T09:45:08.119Z,23.77
2019-05-23T09:47:36.996Z,21.07
2019-05-23T09:50:10.547Z,22.73
2019-05-23T09:52:39.118Z,24.00
2019-05-23T09:55:08.320Z,23.90
2019-05-23T09:57:36.710Z,23.40
2019-05-23T10:00:10.994Z,23.40
2019-05-23T10:02:39.958Z,21.57
2019-05-23T10:05:10.705Z,21.80
2019-05-23T10:07:39.602Z,22.20
2019-05-23T10:10:16.587Z,24.60
2019-05-23T10:12:45.107Z,20.87
2019-05-23T10:15:18.519Z,19.57
2019-05-23T10:17:46.998Z,20.00
2019-05-23T10:20:16.458Z,21.00
2019-05-23T10:22:45.162Z,19.07
2019-05-23T10:25:13.788Z,19.23
2019-05-23T10:27:42.282Z,22.20
2019-05-23T10:30:12.646Z,21.00
2019-05-23T10:32:41.074Z,22.73
2019-05-23T10:35:09.846Z,22.03
2019-05-23T10:37:38.634Z,20.90
2019-05-23T10:40:08.387Z,19.60
2019-05-23T10:42:37.972Z,20.57
2019-05-23T10:45:10.085Z,19.10
2019-05-23T10:47:38.921Z,19.83
2019-05-23T10:50:10.109Z,24.40
2019-05-23T10:52:38.843Z,21.90
2019-05-23T10:55:07.568Z,21.53
2019-05-23T10:57:36.534Z,22.30
2019-05-23T11:00:11.448Z,66.20
2019-05-23T11:02:40.837Z,42.60
2019-05-23T11:05:13.610Z,22.27
2019-05-23T11:07:41.948Z,21.50
2019-05-23T11:10:11.686Z,20.17
2019-05-23T11:12:40.820Z,21.93
2019-05-23T11:15:09.705Z,21.47
2019-05-23T11:17:38.898Z,22.43
2019-05-23T11:20:08.423Z,22.20
2019-05-23T11:22:36.827Z,20.03
2019-05-23T11:25:07.801Z,19.43
2019-05-23T11:27:37.037Z,19.63
2019-05-23T11:30:09.932Z,19.67
2019-05-23T11:32:38.331Z,20.67
2019-05-23T11:35:07.285Z,19.43
2019-05-23T11:37:35.924Z,20.27
2019-05-23T11:40:09.658Z,22.17
2019-05-23T11:42:38.065Z,21.03
2019-05-23T11:45:08.071Z,19.93
2019-05-23T11:47:36.699Z,18.30
2019-05-23T11:50:06.770Z,19.90
2019-05-23T11:52:35.229Z,19.90
2019-05-23T11:55:08.295Z,18.63
2019-05-23T11:57:41.376Z,17.10
2019-05-23T12:00:12.276Z,14.63
2019-05-23T12:02:45.500Z,15.97
2019-05-23T12:05:16.250Z,12.60
2019-05-23T12:07:44.958Z,13.23
2019-05-23T12:10:13.758Z,16.70
2019-05-23T12:12:42.488Z,12.80
2019-05-23T12:15:14.066Z,13.50
2019-05-23T12:17:42.914Z,12.50
2019-05-23T12:20:12.250Z,14.73
2019-05-23T12:22:41.052Z,12.33
2019-05-23T12:25:21.784Z,12.07
2019-05-23T12:27:43.290Z,15.30
2019-05-23T12:30:14.906Z,13.30
2019-05-23T12:32:43.679Z,13.43
2019-05-23T12:35:12.526Z,11.23
2019-05-23T12:37:41.006Z,11.87
2019-05-23T12:40:11.367Z,12.10
2019-05-23T12:42:39.853Z,12.20
2019-05-23T12:45:09.776Z,12.13
2019-05-23T12:47:43.083Z,12.80
2019-05-23T12:50:13.581Z,12.43
2019-05-23T12:52:41.979Z,11.47
2019-05-23T12:55:10.785Z,11.97
2019-05-23T12:57:39.355Z,9.47
2019-05-23T13:00:10.489Z,10.27
2019-05-23T13:02:38.902Z,10.40
2019-05-23T13:05:09.009Z,11.27
2019-05-23T13:07:37.930Z,10.13
2019-05-23T13:10:08.074Z,10.43
2019-05-23T13:12:36.510Z,9.87
2019-05-23T13:15:06.911Z,9.10
2019-05-23T13:17:35.523Z,8.67
2019-05-23T13:20:09.364Z,9.50
2019-05-23T13:22:38.001Z,9.40
2019-05-23T13:25:10.356Z,9.33
2019-05-23T13:27:38.794Z,9.47
2019-05-23T13:30:08.485Z,9.80
2019-05-23T13:32:37.744Z,9.63
2019-05-23T13:35:11.091Z,9.63
2019-05-23T13:37:52.891Z,10.50
2019-05-23T13:40:12.327Z,10.00
2019-05-23T13:42:43.016Z,10.50
2019-05-23T13:45:13.926Z,10.60
2019-05-23T13:47:46.254Z,10.50
2019-05-23T13:50:15.774Z,9.63
2019-05-23T13:52:46.198Z,9.30
2019-05-23T13:55:15.317Z,9.27
2019-05-23T13:57:43.780Z,10.10
2019-05-23T14:00:13.491Z,9.63
2019-05-23T14:02:42.182Z,9.83
2019-05-23T14:05:10.976Z,9.73
2019-05-23T14:07:39.660Z,8.60
2019-05-23T14:10:10.185Z,9.13
2019-05-23T14:12:39.085Z,8.60
2019-05-23T14:15:10.284Z,8.70
2019-05-23T14:17:45.864Z,9.50
2019-05-23T14:20:15.199Z,9.20
2019-05-23T14:22:57.832Z,10.20
2019-05-23T14:25:26.265Z,9.37
2019-05-23T14:28:02.085Z,9.93
2019-05-23T14:30:38.415Z,9.50
2019-05-23T14:33:27.275Z,8.70
2019-05-23T14:36:09.902Z,10.63
2019-05-23T14:38:38.540Z,8.40
2019-05-23T14:41:07.614Z,9.60
2019-05-23T14:43:36.221Z,8.60
2019-05-23T14:46:09.560Z,9.23
2019-05-23T14:48:42.466Z,8.63
2019-05-23T14:51:29.245Z,8.40
2019-05-23T14:53:59.347Z,8.70
2019-05-23T14:56:32.724Z,8.90
2019-05-23T14:59:01.282Z,8.50
2019-05-23T15:01:32.098Z,9.57
2019-05-23T15:04:00.540Z,9.93
2019-05-23T15:06:29.249Z,9.20
2019-05-23T15:08:57.675Z,9.17
2019-05-23T15:11:26.067Z,8.80
2019-05-23T15:13:54.840Z,8.03
2019-05-23T15:16:23.952Z,8.57
2019-05-23T15:18:55.517Z,8.67
2019-05-23T15:21:24.025Z,8.80
2019-05-23T15:23:52.458Z,8.93
2019-05-23T15:26:23.373Z,8.90
2019-05-23T15:28:51.284Z,8.17
2019-05-23T15:31:20.429Z,8.80
2019-05-23T15:33:48.844Z,9.10
2019-05-23T15:36:17.582Z,9.30
2019-05-23T15:38:46.504Z,8.50
2019-05-23T15:41:14.885Z,8.23
2019-05-23T15:43:43.301Z,8.63
2019-05-23T15:46:11.680Z,7.93
2019-05-23T15:48:40.401Z,8.43
2019-05-23T15:51:10.424Z,7.83
2019-05-23T15:53:46.218Z,7.70
2019-05-23T15:56:32.848Z,7.53
2019-05-23T15:59:18.245Z,7.80
2019-05-23T16:01:54.254Z,8.30
2019-05-23T16:04:25.787Z,7.97
2019-05-23T16:06:54.709Z,8.30
2019-05-23T16:09:29.979Z,8.07
2019-05-23T16:11:54.362Z,8.60
2019-05-23T16:14:27.171Z,8.57
2019-05-23T16:16:57.195Z,8.80
2019-05-23T16:19:26.094Z,8.20
2019-05-23T16:21:54.737Z,8.43
2019-05-23T16:24:23.597Z,9.57
2019-05-23T16:26:52.313Z,8.47
2019-05-23T16:29:20.972Z,8.73
2019-05-23T16:31:49.432Z,8.27
2019-05-23T16:34:18.012Z,7.90
2019-05-23T16:36:48.833Z,7.70
2019-05-23T16:39:17.272Z,7.60
2019-05-23T16:41:45.643Z,7.20
2019-05-23T16:44:16.885Z,7.07
2019-05-23T16:46:46.807Z,7.70
2019-05-23T16:49:15.392Z,6.90
2019-05-23T16:51:43.965Z,7.90
2019-05-23T16:54:12.476Z,7.47
2019-05-23T16:56:57.592Z,7.50
2019-05-23T16:59:30.274Z,7.50
2019-05-23T17:02:06.543Z,7.10
2019-05-23T17:04:48.877Z,7.70
2019-05-23T17:07:21.890Z,7.13
2019-05-23T17:10:08.153Z,9.70
2019-05-23T17:12:38.425Z,7.70
2019-05-23T17:15:12.838Z,8.60
2019-05-23T17:18:02.047Z,7.87
2019-05-23T17:20:31.823Z,7.60
2019-05-23T17:23:17.810Z,7.73
2019-05-23T17:26:04.025Z,7.63
2019-05-23T17:28:40.050Z,6.93
2019-05-23T17:31:10.524Z,7.73
2019-05-23T17:33:38.985Z,6.93
2019-05-23T17:36:07.388Z,6.73
2019-05-23T17:38:36.048Z,6.60
2019-05-23T17:41:04.600Z,8.43
2019-05-23T17:43:33.106Z,6.60
2019-05-23T17:46:01.518Z,7.30
2019-05-23T17:48:30.162Z,7.00
2019-05-23T17:50:58.873Z,6.57
2019-05-23T17:53:27.734Z,6.10
2019-05-23T17:55:56.480Z,6.00
2019-05-23T17:58:25.774Z,6.50
2019-05-23T18:00:54.267Z,6.50
2019-05-23T18:03:23.767Z,7.03
2019-05-23T18:05:52.507Z,6.90
2019-05-23T18:08:20.956Z,6.47
2019-05-23T18:10:49.343Z,6.23
2019-05-23T18:13:18.560Z,6.43
2019-05-23T18:15:47.104Z,6.53
2019-05-23T18:18:15.977Z,7.07
2019-05-23T18:20:45.599Z,5.90
2019-05-23T18:23:14.468Z,6.73
2019-05-23T18:25:43.397Z,6.37
2019-05-23T18:28:13.707Z,7.00
2019-05-23T18:30:46.669Z,7.13
2019-05-23T18:33:16.613Z,7.70
2019-05-23T18:35:45.047Z,7.97
2019-05-23T18:38:13.494Z,6.80
2019-05-23T18:40:42.180Z,7.80
2019-05-23T18:43:11.295Z,7.50
2019-05-23T18:45:41.240Z,7.53
2019-05-23T18:48:09.625Z,6.90
2019-05-23T18:50:38.559Z,7.33
2019-05-23T18:53:08.588Z,7.67
2019-05-23T18:55:38.109Z,6.63
2019-05-23T18:58:06.916Z,6.70
2019-05-23T19:00:57.735Z,7.30
2019-05-23T19:03:28.624Z,7.10
2019-05-23T19:05:57.171Z,6.77
2019-05-23T19:08:25.960Z,7.33
2019-05-23T19:10:54.430Z,7.10
2019-05-23T19:13:26.464Z,7.83
2019-05-23T19:15:53.126Z,7.53
2019-05-23T19:18:23.776Z,7.67
2019-05-23T19:20:54.823Z,7.70
2019-05-23T19:23:24.463Z,7.67
2019-05-23T19:25:53.189Z,7.27
2019-05-23T19:28:22.422Z,7.00
2019-05-23T19:30:51.246Z,8.00
2019-05-23T19:33:21.106Z,7.40
2019-05-23T19:35:49.862Z,7.53
2019-05-23T19:38:18.432Z,6.87
2019-05-23T19:40:47.216Z,7.73
2019-05-23T19:43:17.794Z,7.80
2019-05-23T19:45:46.166Z,7.60
2019-05-23T19:48:14.847Z,7.87
2019-05-23T19:50:43.577Z,6.70
2019-05-23T19:53:12.149Z,7.50
2019-05-23T19:55:41.024Z,7.50
2019-05-23T19:58:09.594Z,7.03
2019-05-23T20:00:38.802Z,6.70
2019-05-23T20:03:09.531Z,7.03
2019-05-23T20:05:43.034Z,7.30
2019-05-23T20:08:11.842Z,6.60
2019-05-23T20:10:40.898Z,7.00
2019-05-23T20:13:09.364Z,7.63
2019-05-23T20:15:37.968Z,7.33
2019-05-23T20:18:08.259Z,7.33
2019-05-23T20:20:39.773Z,6.93
2019-05-23T20:23:09.572Z,7.80
2019-05-23T20:25:38.392Z,8.80
2019-05-23T20:28:07.640Z,8.50
2019-05-23T20:30:45.684Z,8.17
2019-05-23T20:33:15.097Z,8.50
2019-05-23T20:35:43.562Z,9.20
2019-05-23T20:38:11.946Z,7.90
2019-05-23T20:40:40.464Z,8.50
2019-05-23T20:43:09.230Z,8.30
2019-05-23T20:45:38.043Z,8.53
2019-05-23T20:48:07.067Z,9.40
2019-05-23T20:50:35.534Z,8.33
2019-05-23T20:53:04.477Z,9.23
2019-05-23T20:55:33.478Z,8.67
2019-05-23T20:58:01.834Z,9.10
2019-05-23T21:00:34.661Z,8.87
2019-05-23T21:03:04.054Z,9.20
2019-05-23T21:05:33.059Z,9.57
2019-05-23T21:08:01.447Z,9.13
2019-05-23T21:10:38.684Z,9.80
2019-05-23T21:13:07.078Z,9.07
2019-05-23T21:15:35.475Z,9.63
2019-05-23T21:18:03.872Z,8.70
2019-05-23T21:20:32.276Z,8.97
2019-05-23T21:23:00.680Z,9.43
2019-05-23T21:25:29.426Z,9.10
2019-05-23T21:27:57.906Z,10.03
2019-05-23T21:30:26.484Z,10.00
2019-05-23T21:32:54.876Z,9.90
2019-05-23T21:35:23.592Z,10.03
2019-05-23T21:37:52.021Z,9.10
2019-05-23T21:40:38.584Z,10.10
2019-05-23T21:43:07.151Z,9.23
2019-05-23T21:45:35.810Z,9.13
2019-05-23T21:48:04.703Z,8.57
2019-05-23T21:50:33.247Z,9.30
2019-05-23T21:53:02.115Z,9.67
2019-05-23T21:55:41.099Z,8.87
2019-05-23T21:58:11.590Z,8.60
2019-05-23T22:01:08.465Z,8.50
2019-05-23T22:03:59.280Z,8.07
2019-05-23T22:06:44.034Z,8.83
2019-05-23T22:09:14.209Z,8.67
2019-05-23T22:11:42.861Z,7.37
2019-05-23T22:14:11.275Z,7.80
2019-05-23T22:16:39.653Z,8.37
2019-05-23T22:19:09.688Z,9.60
2019-05-23T22:21:38.295Z,9.40
2019-05-23T22:24:08.399Z,8.73
2019-05-23T22:26:37.010Z,8.33
2019-05-23T22:29:06.786Z,8.30
2019-05-23T22:31:35.543Z,9.07
2019-05-23T22:34:06.034Z,9.13
2019-05-23T22:36:34.576Z,8.23
2019-05-23T22:39:04.835Z,8.60
2019-05-23T22:41:33.314Z,8.30
2019-05-23T22:44:02.182Z,8.73
2019-05-23T22:46:30.633Z,8.50
2019-05-23T22:48:59.043Z,8.33
2019-05-23T22:51:27.687Z,9.03
2019-05-23T22:53:56.149Z,8.70
2019-05-23T22:56:24.954Z,8.77
2019-05-23T22:58:54.995Z,8.60
2019-05-23T23:01:25.258Z,8.77
2019-05-23T23:03:53.943Z,8.70
2019-05-23T23:06:22.518Z,8.10
2019-05-23T23:08:50.902Z,8.40
2019-05-23T23:11:19.466Z,9.30
2019-05-23T23:13:47.859Z,8.80
2019-05-23T23:16:16.259Z,9.20
2019-05-23T23:18:44.668Z,9.07
2019-05-23T23:21:13.289Z,9.13
2019-05-23T23:23:41.942Z,9.20
2019-05-23T23:26:10.328Z,9.20
2019-05-23T23:28:38.735Z,9.80
2019-05-23T23:31:07.348Z,9.40
2019-05-23T23:33:35.738Z,9.20
2019-05-23T23:36:04.221Z,10.17
2019-05-23T23:38:32.950Z,9.63
2019-05-23T23:41:01.637Z,8.97
2019-05-23T23:43:30.100Z,9.43
2019-05-23T23:46:15.990Z,9.13
2019-05-23T23:49:02.712Z,9.93
2019-05-23T23:51:49.205Z,9.47
2019-05-23T23:54:36.011Z,9.10
2019-05-23T23:57:22.556Z,9.10
2019-05-23T23:59:50.260Z,8.30
